VIE weather

Vienna International Airport
Vienna, Vienna, Austria

Public forecast

Using degrees Celsius for public forecast. Weather courtesy of forecast.io.

METAR (pilot weather report)

Retrieved 2017/05/25 00:20 UTC (39 minutes ago):

LOWW 250020Z 32011KT 9999 FEW050 13/06 Q1019 NOSIG

TAF (pilot weather forecast)

Forecast is more than 12 hours old.

Retrieved 2017/05/24 00:18 UTC (1 day ago):

TAF LOWW 242315Z 2500/2606 32012KT 9999 FEW040 BKN080 TX18/2514Z TN11/2503Z TEMPO 2506/2515 34015KT -SHRA BKN045 TEMPO 2518/2606 32006KT CAVOK